Terminal Aerodrome Forecast
Issued by NWS

Home | Current Version | Previous Version | Text Only | Print | Product List | Glossary On
Versions: 1 2 3 4 5 6 7 8 9 10 11 12 13 14
405
FTAK31 PAJN 281132
TAFAGY
TAF
PAGY 281132Z 2812/2912 21013G21KT P6SM VCSH SCT020 OVC035
     FM281500 21018KT P6SM VCSH BKN030
     FM290500 21011KT P6SM OVC050
      AMD LTD TO CLD VIS AND WIND=

USA.gov is the U.S. government's official web portal to all federal, state and local government web resources and services.